sensor_id;sensor_type;location;lat;lon;timestamp;P1;durP1;ratioP1;P2;durP2;ratioP2
11504;SDS011;5809;53.262;10.408;2023-06-26T00:00:06;10.48;;;9.50;;
11504;SDS011;5809;53.262;10.408;2023-06-26T00:02:33;10.15;;;9.25;;
11504;SDS011;5809;53.262;10.408;2023-06-26T00:05:01;10.88;;;9.80;;
11504;SDS011;5809;53.262;10.408;2023-06-26T00:07:30;10.45;;;9.55;;
11504;SDS011;5809;53.262;10.408;2023-06-26T00:09:59;10.00;;;9.10;;
11504;SDS011;5809;53.262;10.408;2023-06-26T00:12:26;13.15;;;9.10;;
11504;SDS011;5809;53.262;10.408;2023-06-26T00:14:52;10.85;;;9.48;;
11504;SDS011;5809;53.262;10.408;2023-06-26T00:17:20;10.05;;;9.05;;
11504;SDS011;5809;53.262;10.408;2023-06-26T00:19:47;9.88;;;8.98;;
11504;SDS011;5809;53.262;10.408;2023-06-26T00:22:14;9.40;;;8.60;;
11504;SDS011;5809;53.262;10.408;2023-06-26T00:24:42;9.70;;;8.82;;
11504;SDS011;5809;53.262;10.408;2023-06-26T00:27:10;9.80;;;8.80;;
11504;SDS011;5809;53.262;10.408;2023-06-26T00:29:37;9.80;;;8.80;;
11504;SDS011;5809;53.262;10.408;2023-06-26T00:32:04;9.68;;;8.80;;
11504;SDS011;5809;53.262;10.408;2023-06-26T00:34:32;10.27;;;9.27;;
11504;SDS011;5809;53.262;10.408;2023-06-26T00:36:59;9.95;;;9.05;;
11504;SDS011;5809;53.262;10.408;2023-06-26T00:39:26;10.45;;;9.45;;
11504;SDS011;5809;53.262;10.408;2023-06-26T00:41:54;11.32;;;9.27;;
11504;SDS011;5809;53.262;10.408;2023-06-26T00:44:21;9.50;;;8.60;;
11504;SDS011;5809;53.262;10.408;2023-06-26T00:46:48;10.43;;;9.50;;
11504;SDS011;5809;53.262;10.408;2023-06-26T00:49:15;10.02;;;9.13;;
11504;SDS011;5809;53.262;10.408;2023-06-26T00:51:42;10.23;;;9.27;;
11504;SDS011;5809;53.262;10.408;2023-06-26T00:54:09;10.48;;;9.48;;
11504;SDS011;5809;53.262;10.408;2023-06-26T00:56:36;9.90;;;9.10;;
11504;SDS011;5809;53.262;10.408;2023-06-26T00:59:05;9.52;;;8.73;;
11504;SDS011;5809;53.262;10.408;2023-06-26T01:01:32;9.68;;;8.88;;
11504;SDS011;5809;53.262;10.408;2023-06-26T01:03:58;10.60;;;9.60;;
11504;SDS011;5809;53.262;10.408;2023-06-26T01:06:26;10.57;;;9.45;;
11504;SDS011;5809;53.262;10.408;2023-06-26T01:08:57;10.55;;;9.60;;
11504;SDS011;5809;53.262;10.408;2023-06-26T01:11:24;10.32;;;9.43;;
11504;SDS011;5809;53.262;10.408;2023-06-26T01:13:51;10.40;;;9.40;;
11504;SDS011;5809;53.262;10.408;2023-06-26T01:16:21;10.20;;;9.20;;
11504;SDS011;5809;53.262;10.408;2023-06-26T01:18:50;9.77;;;8.90;;
11504;SDS011;5809;53.262;10.408;2023-06-26T01:21:17;9.40;;;8.60;;
11504;SDS011;5809;53.262;10.408;2023-06-26T01:23:48;9.75;;;8.88;;
11504;SDS011;5809;53.262;10.408;2023-06-26T01:26:27;10.13;;;9.13;;
11504;SDS011;5809;53.262;10.408;2023-06-26T01:28:56;9.85;;;8.65;;
11504;SDS011;5809;53.262;10.408;2023-06-26T01:31:24;9.93;;;8.88;;
11504;SDS011;5809;53.262;10.408;2023-06-26T01:33:53;10.38;;;9.07;;
11504;SDS011;5809;53.262;10.408;2023-06-26T01:36:20;10.20;;;9.25;;
11504;SDS011;5809;53.262;10.408;2023-06-26T01:38:48;9.38;;;8.57;;
11504;SDS011;5809;53.262;10.408;2023-06-26T01:41:16;10.20;;;9.25;;
11504;SDS011;5809;53.262;10.408;2023-06-26T01:43:50;9.15;;;8.35;;
11504;SDS011;5809;53.262;10.408;2023-06-26T01:46:29;9.73;;;8.88;;
11504;SDS011;5809;53.262;10.408;2023-06-26T01:49:03;10.43;;;8.73;;
11504;SDS011;5809;53.262;10.408;2023-06-26T01:51:35;9.60;;;8.60;;
11504;SDS011;5809;53.262;10.408;2023-06-26T01:54:08;9.32;;;8.52;;
11504;SDS011;5809;53.262;10.408;2023-06-26T01:56:39;9.60;;;8.70;;
11504;SDS011;5809;53.262;10.408;2023-06-26T01:59:09;9.30;;;8.43;;
11504;SDS011;5809;53.262;10.408;2023-06-26T02:01:39;9.82;;;9.02;;
11504;SDS011;5809;53.262;10.408;2023-06-26T02:04:06;9.88;;;9.07;;
11504;SDS011;5809;53.262;10.408;2023-06-26T02:06:32;9.73;;;8.93;;
11504;SDS011;5809;53.262;10.408;2023-06-26T02:08:59;9.50;;;8.48;;
11504;SDS011;5809;53.262;10.408;2023-06-26T02:11:27;9.48;;;8.68;;
11504;SDS011;5809;53.262;10.408;2023-06-26T02:13:54;9.88;;;9.07;;
11504;SDS011;5809;53.262;10.408;2023-06-26T02:16:22;9.30;;;8.50;;
11504;SDS011;5809;53.262;10.408;2023-06-26T02:18:49;10.75;;;8.93;;
11504;SDS011;5809;53.262;10.408;2023-06-26T02:21:16;9.88;;;8.90;;
11504;SDS011;5809;53.262;10.408;2023-06-26T02:23:43;9.70;;;8.80;;
11504;SDS011;5809;53.262;10.408;2023-06-26T02:26:09;9.27;;;8.48;;
11504;SDS011;5809;53.262;10.408;2023-06-26T02:28:36;9.43;;;8.63;;
11504;SDS011;5809;53.262;10.408;2023-06-26T02:31:03;9.38;;;8.57;;
11504;SDS011;5809;53.262;10.408;2023-06-26T02:33:32;9.35;;;8.55;;
11504;SDS011;5809;53.262;10.408;2023-06-26T02:35:59;9.00;;;8.20;;
11504;SDS011;5809;53.262;10.408;2023-06-26T02:38:26;11.20;;;9.20;;
11504;SDS011;5809;53.262;10.408;2023-06-26T02:40:52;9.75;;;8.10;;
11504;SDS011;5809;53.262;10.408;2023-06-26T02:43:19;8.85;;;8.10;;
11504;SDS011;5809;53.262;10.408;2023-06-26T02:45:46;10.18;;;9.02;;
11504;SDS011;5809;53.262;10.408;2023-06-26T02:48:13;9.30;;;8.35;;
11504;SDS011;5809;53.262;10.408;2023-06-26T02:50:41;9.95;;;9.05;;
11504;SDS011;5809;53.262;10.408;2023-06-26T02:53:11;11.32;;;8.68;;
11504;SDS011;5809;53.262;10.408;2023-06-26T02:55:37;9.68;;;8.77;;
11504;SDS011;5809;53.262;10.408;2023-06-26T02:58:04;9.43;;;8.52;;
11504;SDS011;5809;53.262;10.408;2023-06-26T03:00:31;9.30;;;8.40;;
11504;SDS011;5809;53.262;10.408;2023-06-26T03:02:58;9.40;;;8.40;;
11504;SDS011;5809;53.262;10.408;2023-06-26T03:08:11;9.52;;;8.52;;
11504;SDS011;5809;53.262;10.408;2023-06-26T03:10:38;10.43;;;9.32;;
11504;SDS011;5809;53.262;10.408;2023-06-26T03:13:05;9.40;;;8.50;;
11504;SDS011;5809;53.262;10.408;2023-06-26T03:15:32;9.65;;;8.75;;
11504;SDS011;5809;53.262;10.408;2023-06-26T03:17:59;9.35;;;8.55;;
11504;SDS011;5809;53.262;10.408;2023-06-26T03:20:26;9.50;;;8.65;;
11504;SDS011;5809;53.262;10.408;2023-06-26T03:22:54;9.90;;;8.90;;
11504;SDS011;5809;53.262;10.408;2023-06-26T03:25:21;9.30;;;8.38;;
11504;SDS011;5809;53.262;10.408;2023-06-26T03:27:48;11.68;;;9.60;;
11504;SDS011;5809;53.262;10.408;2023-06-26T03:30:15;9.13;;;8.32;;
11504;SDS011;5809;53.262;10.408;2023-06-26T03:32:41;11.13;;;8.52;;
11504;SDS011;5809;53.262;10.408;2023-06-26T03:35:08;9.68;;;8.77;;
11504;SDS011;5809;53.262;10.408;2023-06-26T03:37:35;9.80;;;8.90;;
11504;SDS011;5809;53.262;10.408;2023-06-26T03:40:04;9.68;;;8.77;;
11504;SDS011;5809;53.262;10.408;2023-06-26T03:42:31;11.35;;;8.95;;
11504;SDS011;5809;53.262;10.408;2023-06-26T03:44:58;9.60;;;8.80;;
11504;SDS011;5809;53.262;10.408;2023-06-26T03:47:25;10.15;;;9.25;;
11504;SDS011;5809;53.262;10.408;2023-06-26T03:49:52;9.30;;;8.48;;
11504;SDS011;5809;53.262;10.408;2023-06-26T03:52:19;10.43;;;9.38;;
11504;SDS011;5809;53.262;10.408;2023-06-26T03:54:45;9.82;;;9.00;;
11504;SDS011;5809;53.262;10.408;2023-06-26T03:57:15;9.15;;;8.35;;
11504;SDS011;5809;53.262;10.408;2023-06-26T03:59:42;11.00;;;9.07;;
11504;SDS011;5809;53.262;10.408;2023-06-26T04:02:09;9.98;;;8.98;;
11504;SDS011;5809;53.262;10.408;2023-06-26T04:04:37;10.75;;;8.93;;
11504;SDS011;5809;53.262;10.408;2023-06-26T04:07:04;10.30;;;9.02;;
11504;SDS011;5809;53.262;10.408;2023-06-26T04:09:31;9.73;;;8.77;;
11504;SDS011;5809;53.262;10.408;2023-06-26T04:11:58;10.07;;;9.15;;
11504;SDS011;5809;53.262;10.408;2023-06-26T04:14:27;9.13;;;8.30;;
11504;SDS011;5809;53.262;10.408;2023-06-26T04:16:54;10.15;;;8.30;;
11504;SDS011;5809;53.262;10.408;2023-06-26T04:19:22;9.15;;;8.30;;
11504;SDS011;5809;53.262;10.408;2023-06-26T04:21:49;9.80;;;8.93;;
11504;SDS011;5809;53.262;10.408;2023-06-26T04:24:16;9.60;;;8.70;;
11504;SDS011;5809;53.262;10.408;2023-06-26T04:26:44;9.63;;;8.80;;
11504;SDS011;5809;53.262;10.408;2023-06-26T04:29:11;9.98;;;8.95;;
11504;SDS011;5809;53.262;10.408;2023-06-26T04:31:39;9.80;;;8.90;;
11504;SDS011;5809;53.262;10.408;2023-06-26T04:34:06;9.70;;;8.80;;
11504;SDS011;5809;53.262;10.408;2023-06-26T04:36:33;9.68;;;8.82;;
11504;SDS011;5809;53.262;10.408;2023-06-26T04:39:04;9.63;;;8.73;;
11504;SDS011;5809;53.262;10.408;2023-06-26T04:41:31;9.52;;;8.63;;
11504;SDS011;5809;53.262;10.408;2023-06-26T04:43:58;9.35;;;8.45;;
11504;SDS011;5809;53.262;10.408;2023-06-26T04:46:25;10.32;;;9.18;;
11504;SDS011;5809;53.262;10.408;2023-06-26T04:48:54;9.88;;;8.48;;
11504;SDS011;5809;53.262;10.408;2023-06-26T04:51:23;9.88;;;8.30;;
11504;SDS011;5809;53.262;10.408;2023-06-26T04:53:51;10.07;;;8.73;;
11504;SDS011;5809;53.262;10.408;2023-06-26T04:56:19;11.05;;;8.60;;
11504;SDS011;5809;53.262;10.408;2023-06-26T04:58:45;9.35;;;8.45;;
11504;SDS011;5809;53.262;10.408;2023-06-26T05:01:12;9.70;;;8.80;;
11504;SDS011;5809;53.262;10.408;2023-06-26T05:03:40;8.48;;;7.70;;
11504;SDS011;5809;53.262;10.408;2023-06-26T05:06:08;8.57;;;7.70;;
11504;SDS011;5809;53.262;10.408;2023-06-26T05:08:35;8.80;;;7.90;;
11504;SDS011;5809;53.262;10.408;2023-06-26T05:11:03;8.23;;;7.43;;
11504;SDS011;5809;53.262;10.408;2023-06-26T05:13:30;7.97;;;7.30;;
11504;SDS011;5809;53.262;10.408;2023-06-26T05:15:57;8.40;;;7.60;;
11504;SDS011;5809;53.262;10.408;2023-06-26T05:18:24;8.48;;;7.68;;
11504;SDS011;5809;53.262;10.408;2023-06-26T05:20:51;8.05;;;7.35;;
11504;SDS011;5809;53.262;10.408;2023-06-26T05:23:19;10.63;;;7.38;;
11504;SDS011;5809;53.262;10.408;2023-06-26T05:25:47;8.27;;;7.47;;
11504;SDS011;5809;53.262;10.408;2023-06-26T05:28:15;8.43;;;7.63;;
11504;SDS011;5809;53.262;10.408;2023-06-26T05:30:42;8.02;;;7.22;;
11504;SDS011;5809;53.262;10.408;2023-06-26T05:33:10;7.72;;;6.93;;
11504;SDS011;5809;53.262;10.408;2023-06-26T05:35:38;9.07;;;6.43;;
11504;SDS011;5809;53.262;10.408;2023-06-26T05:38:05;8.25;;;6.95;;
11504;SDS011;5809;53.262;10.408;2023-06-26T05:40:35;7.38;;;6.68;;
11504;SDS011;5809;53.262;10.408;2023-06-26T05:43:02;7.80;;;7.03;;
11504;SDS011;5809;53.262;10.408;2023-06-26T05:45:29;8.73;;;7.40;;
11504;SDS011;5809;53.262;10.408;2023-06-26T05:47:56;7.97;;;7.18;;
11504;SDS011;5809;53.262;10.408;2023-06-26T05:50:23;7.70;;;6.57;;
11504;SDS011;5809;53.262;10.408;2023-06-26T05:52:50;7.82;;;6.78;;
11504;SDS011;5809;53.262;10.408;2023-06-26T05:55:18;7.40;;;6.63;;
11504;SDS011;5809;53.262;10.408;2023-06-26T05:57:47;7.68;;;6.82;;
11504;SDS011;5809;53.262;10.408;2023-06-26T06:00:15;6.93;;;6.22;;
11504;SDS011;5809;53.262;10.408;2023-06-26T06:02:43;7.97;;;6.65;;
11504;SDS011;5809;53.262;10.408;2023-06-26T06:05:10;8.75;;;6.15;;
11504;SDS011;5809;53.262;10.408;2023-06-26T06:07:37;7.28;;;6.57;;
11504;SDS011;5809;53.262;10.408;2023-06-26T06:10:04;7.22;;;6.50;;
11504;SDS011;5809;53.262;10.408;2023-06-26T06:12:31;6.97;;;6.30;;
11504;SDS011;5809;53.262;10.408;2023-06-26T06:14:59;7.35;;;6.40;;
11504;SDS011;5809;53.262;10.408;2023-06-26T06:17:26;7.47;;;6.43;;
11504;SDS011;5809;53.262;10.408;2023-06-26T06:19:53;9.38;;;6.50;;
11504;SDS011;5809;53.262;10.408;2023-06-26T06:22:20;6.95;;;6.22;;
11504;SDS011;5809;53.262;10.408;2023-06-26T06:24:48;7.35;;;6.10;;
11504;SDS011;5809;53.262;10.408;2023-06-26T06:27:16;6.82;;;6.13;;
11504;SDS011;5809;53.262;10.408;2023-06-26T06:29:43;7.05;;;6.35;;
11504;SDS011;5809;53.262;10.408;2023-06-26T06:32:11;7.13;;;6.38;;
11504;SDS011;5809;53.262;10.408;2023-06-26T06:34:38;8.95;;;6.75;;
11504;SDS011;5809;53.262;10.408;2023-06-26T06:37:05;7.88;;;6.03;;
11504;SDS011;5809;53.262;10.408;2023-06-26T06:39:32;6.63;;;5.90;;
11504;SDS011;5809;53.262;10.408;2023-06-26T06:41:59;7.80;;;6.03;;
11504;SDS011;5809;53.262;10.408;2023-06-26T06:44:27;6.80;;;6.13;;
11504;SDS011;5809;53.262;10.408;2023-06-26T06:46:55;6.75;;;6.15;;
11504;SDS011;5809;53.262;10.408;2023-06-26T06:49:23;9.25;;;6.50;;
11504;SDS011;5809;53.262;10.408;2023-06-26T06:51:51;9.25;;;6.47;;
11504;SDS011;5809;53.262;10.408;2023-06-26T06:54:18;8.73;;;5.80;;
11504;SDS011;5809;53.262;10.408;2023-06-26T06:56:46;7.10;;;6.45;;
11504;SDS011;5809;53.262;10.408;2023-06-26T06:59:13;6.72;;;6.13;;
11504;SDS011;5809;53.262;10.408;2023-06-26T07:01:40;8.48;;;6.50;;
11504;SDS011;5809;53.262;10.408;2023-06-26T07:04:07;9.52;;;6.68;;
11504;SDS011;5809;53.262;10.408;2023-06-26T07:06:35;15.88;;;6.22;;
11504;SDS011;5809;53.262;10.408;2023-06-26T07:09:02;9.30;;;6.18;;
11504;SDS011;5809;53.262;10.408;2023-06-26T07:11:30;9.15;;;6.30;;
11504;SDS011;5809;53.262;10.408;2023-06-26T07:13:58;6.72;;;6.03;;
11504;SDS011;5809;53.262;10.408;2023-06-26T07:16:24;7.68;;;5.97;;
11504;SDS011;5809;53.262;10.408;2023-06-26T07:18:51;6.70;;;5.93;;
11504;SDS011;5809;53.262;10.408;2023-06-26T07:21:19;6.47;;;5.88;;
11504;SDS011;5809;53.262;10.408;2023-06-26T07:23:48;6.18;;;5.38;;
11504;SDS011;5809;53.262;10.408;2023-06-26T07:26:15;8.77;;;6.22;;
11504;SDS011;5809;53.262;10.408;2023-06-26T07:28:42;7.05;;;6.10;;
11504;SDS011;5809;53.262;10.408;2023-06-26T07:31:09;6.20;;;5.70;;
11504;SDS011;5809;53.262;10.408;2023-06-26T07:33:36;9.80;;;5.63;;
11504;SDS011;5809;53.262;10.408;2023-06-26T07:36:03;7.15;;;6.32;;
11504;SDS011;5809;53.262;10.408;2023-06-26T07:38:30;6.40;;;5.90;;
11504;SDS011;5809;53.262;10.408;2023-06-26T07:40:59;8.90;;;5.78;;
11504;SDS011;5809;53.262;10.408;2023-06-26T07:43:26;7.68;;;6.15;;
11504;SDS011;5809;53.262;10.408;2023-06-26T07:45:53;6.20;;;5.60;;
11504;SDS011;5809;53.262;10.408;2023-06-26T07:48:19;7.38;;;5.82;;
11504;SDS011;5809;53.262;10.408;2023-06-26T07:50:46;6.75;;;5.80;;
11504;SDS011;5809;53.262;10.408;2023-06-26T07:53:13;6.90;;;5.93;;
11504;SDS011;5809;53.262;10.408;2023-06-26T07:55:40;6.38;;;5.78;;
11504;SDS011;5809;53.262;10.408;2023-06-26T07:58:08;6.35;;;5.75;;
11504;SDS011;5809;53.262;10.408;2023-06-26T08:00:36;6.88;;;6.15;;
11504;SDS011;5809;53.262;10.408;2023-06-26T08:03:03;6.40;;;5.78;;
11504;SDS011;5809;53.262;10.408;2023-06-26T08:05:30;6.50;;;5.90;;
11504;SDS011;5809;53.262;10.408;2023-06-26T08:07:57;8.02;;;6.18;;
11504;SDS011;5809;53.262;10.408;2023-06-26T08:10:26;5.90;;;5.43;;
11504;SDS011;5809;53.262;10.408;2023-06-26T08:12:55;6.60;;;6.03;;
11504;SDS011;5809;53.262;10.408;2023-06-26T08:15:24;6.45;;;5.85;;
11504;SDS011;5809;53.262;10.408;2023-06-26T08:17:51;6.43;;;5.93;;
11504;SDS011;5809;53.262;10.408;2023-06-26T08:20:19;6.50;;;5.97;;
11504;SDS011;5809;53.262;10.408;2023-06-26T08:22:47;7.85;;;6.65;;
11504;SDS011;5809;53.262;10.408;2023-06-26T08:25:16;6.95;;;6.35;;
11504;SDS011;5809;53.262;10.408;2023-06-26T08:27:43;7.60;;;6.63;;
11504;SDS011;5809;53.262;10.408;2023-06-26T08:30:10;7.28;;;6.57;;
11504;SDS011;5809;53.262;10.408;2023-06-26T08:32:39;8.45;;;6.47;;
11504;SDS011;5809;53.262;10.408;2023-06-26T08:35:06;6.82;;;6.22;;
11504;SDS011;5809;53.262;10.408;2023-06-26T08:37:35;8.23;;;6.40;;
11504;SDS011;5809;53.262;10.408;2023-06-26T08:40:02;7.28;;;6.35;;
11504;SDS011;5809;53.262;10.408;2023-06-26T08:42:30;10.45;;;6.68;;
11504;SDS011;5809;53.262;10.408;2023-06-26T08:44:57;6.82;;;6.22;;
11504;SDS011;5809;53.262;10.408;2023-06-26T08:47:24;6.45;;;5.70;;
11504;SDS011;5809;53.262;10.408;2023-06-26T08:49:56;8.30;;;6.47;;
11504;SDS011;5809;53.262;10.408;2023-06-26T08:52:33;7.20;;;6.50;;
11504;SDS011;5809;53.262;10.408;2023-06-26T08:55:04;7.18;;;6.57;;
11504;SDS011;5809;53.262;10.408;2023-06-26T08:57:35;7.82;;;7.03;;
11504;SDS011;5809;53.262;10.408;2023-06-26T09:00:03;7.55;;;6.95;;
11504;SDS011;5809;53.262;10.408;2023-06-26T09:02:30;7.30;;;6.63;;
11504;SDS011;5809;53.262;10.408;2023-06-26T09:04:59;7.53;;;6.82;;
11504;SDS011;5809;53.262;10.408;2023-06-26T09:07:27;7.25;;;6.57;;
11504;SDS011;5809;53.262;10.408;2023-06-26T09:09:53;7.10;;;6.45;;
11504;SDS011;5809;53.262;10.408;2023-06-26T09:12:20;6.75;;;6.15;;
11504;SDS011;5809;53.262;10.408;2023-06-26T09:14:47;8.27;;;6.50;;
11504;SDS011;5809;53.262;10.408;2023-06-26T09:17:14;7.25;;;6.28;;
11504;SDS011;5809;53.262;10.408;2023-06-26T09:19:42;7.60;;;6.78;;
11504;SDS011;5809;53.262;10.408;2023-06-26T09:22:13;7.22;;;6.13;;
11504;SDS011;5809;53.262;10.408;2023-06-26T09:24:40;8.82;;;6.30;;
11504;SDS011;5809;53.262;10.408;2023-06-26T09:27:07;6.90;;;6.30;;
11504;SDS011;5809;53.262;10.408;2023-06-26T09:29:35;7.57;;;6.82;;
11504;SDS011;5809;53.262;10.408;2023-06-26T09:32:02;8.82;;;6.20;;
11504;SDS011;5809;53.262;10.408;2023-06-26T09:34:31;7.25;;;6.57;;
11504;SDS011;5809;53.262;10.408;2023-06-26T09:36:59;7.30;;;6.40;;
11504;SDS011;5809;53.262;10.408;2023-06-26T09:39:29;8.10;;;6.25;;
11504;SDS011;5809;53.262;10.408;2023-06-26T09:41:56;9.55;;;6.47;;
11504;SDS011;5809;53.262;10.408;2023-06-26T09:44:24;7.03;;;6.43;;
11504;SDS011;5809;53.262;10.408;2023-06-26T09:46:51;9.93;;;6.68;;
11504;SDS011;5809;53.262;10.408;2023-06-26T09:49:18;7.15;;;6.45;;
11504;SDS011;5809;53.262;10.408;2023-06-26T09:51:45;8.40;;;6.80;;
11504;SDS011;5809;53.262;10.408;2023-06-26T09:54:15;8.05;;;7.25;;
11504;SDS011;5809;53.262;10.408;2023-06-26T09:56:44;7.60;;;6.90;;
11504;SDS011;5809;53.262;10.408;2023-06-26T09:59:11;8.73;;;7.00;;
11504;SDS011;5809;53.262;10.408;2023-06-26T10:01:39;7.72;;;6.97;;
11504;SDS011;5809;53.262;10.408;2023-06-26T10:04:07;8.05;;;7.30;;
11504;SDS011;5809;53.262;10.408;2023-06-26T10:06:35;12.90;;;7.63;;
11504;SDS011;5809;53.262;10.408;2023-06-26T10:09:03;10.88;;;7.60;;
11504;SDS011;5809;53.262;10.408;2023-06-26T10:11:32;8.80;;;7.97;;
11504;SDS011;5809;53.262;10.408;2023-06-26T10:14:05;12.02;;;7.60;;
11504;SDS011;5809;53.262;10.408;2023-06-26T10:16:35;10.68;;;8.13;;
11504;SDS011;5809;53.262;10.408;2023-06-26T10:19:06;10.55;;;8.00;;
11504;SDS011;5809;53.262;10.408;2023-06-26T10:21:34;16.45;;;8.93;;
11504;SDS011;5809;53.262;10.408;2023-06-26T10:24:03;12.02;;;8.82;;
11504;SDS011;5809;53.262;10.408;2023-06-26T10:26:33;9.32;;;8.10;;
11504;SDS011;5809;53.262;10.408;2023-06-26T10:29:05;13.25;;;8.95;;
11504;SDS011;5809;53.262;10.408;2023-06-26T10:31:33;10.35;;;9.30;;
11504;SDS011;5809;53.262;10.408;2023-06-26T10:34:01;14.07;;;9.60;;
11504;SDS011;5809;53.262;10.408;2023-06-26T10:36:30;10.68;;;9.57;;
11504;SDS011;5809;53.262;10.408;2023-06-26T10:38:58;10.27;;;8.77;;
11504;SDS011;5809;53.262;10.408;2023-06-26T10:41:30;13.40;;;8.82;;
11504;SDS011;5809;53.262;10.408;2023-06-26T10:44:08;11.68;;;9.38;;
11504;SDS011;5809;53.262;10.408;2023-06-26T10:46:48;9.60;;;7.88;;
11504;SDS011;5809;53.262;10.408;2023-06-26T10:49:17;14.98;;;5.60;;
11504;SDS011;5809;53.262;10.408;2023-06-26T10:51:47;9.18;;;5.13;;
11504;SDS011;5809;53.262;10.408;2023-06-26T10:54:15;13.02;;;5.70;;
11504;SDS011;5809;53.262;10.408;2023-06-26T10:56:43;7.50;;;5.10;;
11504;SDS011;5809;53.262;10.408;2023-06-26T10:59:17;6.43;;;5.38;;
11504;SDS011;5809;53.262;10.408;2023-06-26T11:01:45;8.20;;;5.78;;
11504;SDS011;5809;53.262;10.408;2023-06-26T11:04:22;7.93;;;5.55;;
11504;SDS011;5809;53.262;10.408;2023-06-26T11:07:14;9.13;;;6.65;;
11504;SDS011;5809;53.262;10.408;2023-06-26T11:09:53;9.00;;;6.93;;
11504;SDS011;5809;53.262;10.408;2023-06-26T11:12:37;8.73;;;6.75;;
11504;SDS011;5809;53.262;10.408;2023-06-26T11:15:08;9.30;;;6.97;;
11504;SDS011;5809;53.262;10.408;2023-06-26T11:17:36;10.35;;;8.15;;
11504;SDS011;5809;53.262;10.408;2023-06-26T11:20:03;10.25;;;9.18;;
11504;SDS011;5809;53.262;10.408;2023-06-26T11:22:34;14.05;;;9.80;;
11504;SDS011;5809;53.262;10.408;2023-06-26T11:25:02;12.55;;;10.52;;
11504;SDS011;5809;53.262;10.408;2023-06-26T11:27:31;12.30;;;10.57;;
11504;SDS011;5809;53.262;10.408;2023-06-26T11:29:58;12.98;;;11.65;;
11504;SDS011;5809;53.262;10.408;2023-06-26T11:32:27;18.17;;;13.18;;
11504;SDS011;5809;53.262;10.408;2023-06-26T11:34:54;16.52;;;13.25;;
11504;SDS011;5809;53.262;10.408;2023-06-26T11:37:21;13.82;;;11.68;;
11504;SDS011;5809;53.262;10.408;2023-06-26T11:39:48;13.63;;;12.10;;
11504;SDS011;5809;53.262;10.408;2023-06-26T11:42:15;13.60;;;11.45;;
11504;SDS011;5809;53.262;10.408;2023-06-26T11:44:43;13.63;;;11.55;;
11504;SDS011;5809;53.262;10.408;2023-06-26T11:47:13;19.08;;;11.05;;
11504;SDS011;5809;53.262;10.408;2023-06-26T11:49:46;14.85;;;11.20;;
11504;SDS011;5809;53.262;10.408;2023-06-26T11:52:14;10.98;;;9.88;;
11504;SDS011;5809;53.262;10.408;2023-06-26T11:54:42;12.15;;;10.48;;
11504;SDS011;5809;53.262;10.408;2023-06-26T11:57:13;16.45;;;10.85;;
11504;SDS011;5809;53.262;10.408;2023-06-26T11:59:41;10.68;;;9.55;;
11504;SDS011;5809;53.262;10.408;2023-06-26T12:02:08;10.43;;;9.32;;
11504;SDS011;5809;53.262;10.408;2023-06-26T12:04:36;10.25;;;8.48;;
11504;SDS011;5809;53.262;10.408;2023-06-26T12:07:08;10.07;;;8.43;;
11504;SDS011;5809;53.262;10.408;2023-06-26T12:09:39;10.95;;;7.65;;
11504;SDS011;5809;53.262;10.408;2023-06-26T12:12:08;8.60;;;6.80;;
11504;SDS011;5809;53.262;10.408;2023-06-26T12:14:36;8.27;;;6.30;;
11504;SDS011;5809;53.262;10.408;2023-06-26T12:17:07;7.55;;;5.53;;
11504;SDS011;5809;53.262;10.408;2023-06-26T12:19:36;7.93;;;5.43;;
11504;SDS011;5809;53.262;10.408;2023-06-26T12:22:06;7.43;;;5.18;;
11504;SDS011;5809;53.262;10.408;2023-06-26T12:24:36;11.00;;;5.13;;
11504;SDS011;5809;53.262;10.408;2023-06-26T12:27:07;9.93;;;5.15;;
11504;SDS011;5809;53.262;10.408;2023-06-26T12:29:35;9.68;;;4.85;;
11504;SDS011;5809;53.262;10.408;2023-06-26T12:32:02;8.50;;;4.85;;
11504;SDS011;5809;53.262;10.408;2023-06-26T12:34:31;7.60;;;4.20;;
11504;SDS011;5809;53.262;10.408;2023-06-26T12:37:00;6.78;;;4.10;;
11504;SDS011;5809;53.262;10.408;2023-06-26T12:39:29;5.95;;;3.38;;
11504;SDS011;5809;53.262;10.408;2023-06-26T12:42:13;6.40;;;3.30;;
11504;SDS011;5809;53.262;10.408;2023-06-26T12:44:40;5.82;;;3.28;;
11504;SDS011;5809;53.262;10.408;2023-06-26T12:47:07;7.28;;;3.25;;
11504;SDS011;5809;53.262;10.408;2023-06-26T12:49:35;8.02;;;3.70;;
11504;SDS011;5809;53.262;10.408;2023-06-26T12:52:03;5.35;;;2.85;;
11504;SDS011;5809;53.262;10.408;2023-06-26T12:54:33;4.57;;;2.50;;
11504;SDS011;5809;53.262;10.408;2023-06-26T12:57:00;5.95;;;2.80;;
11504;SDS011;5809;53.262;10.408;2023-06-26T12:59:28;4.75;;;2.45;;
11504;SDS011;5809;53.262;10.408;2023-06-26T13:01:56;4.03;;;2.28;;
11504;SDS011;5809;53.262;10.408;2023-06-26T13:04:23;6.47;;;2.72;;
11504;SDS011;5809;53.262;10.408;2023-06-26T13:06:50;7.13;;;2.72;;
11504;SDS011;5809;53.262;10.408;2023-06-26T13:09:17;5.47;;;2.40;;
11504;SDS011;5809;53.262;10.408;2023-06-26T13:11:45;5.30;;;2.53;;
11504;SDS011;5809;53.262;10.408;2023-06-26T13:14:12;7.22;;;2.50;;
11504;SDS011;5809;53.262;10.408;2023-06-26T13:16:39;11.65;;;2.50;;
11504;SDS011;5809;53.262;10.408;2023-06-26T13:19:06;4.90;;;2.38;;
11504;SDS011;5809;53.262;10.408;2023-06-26T13:21:33;7.35;;;2.67;;
11504;SDS011;5809;53.262;10.408;2023-06-26T13:24:01;4.20;;;2.05;;
11504;SDS011;5809;53.262;10.408;2023-06-26T13:26:28;5.93;;;2.30;;
11504;SDS011;5809;53.262;10.408;2023-06-26T13:28:58;4.65;;;2.35;;
11504;SDS011;5809;53.262;10.408;2023-06-26T13:31:25;4.18;;;2.08;;
11504;SDS011;5809;53.262;10.408;2023-06-26T13:33:52;4.72;;;2.42;;
11504;SDS011;5809;53.262;10.408;2023-06-26T13:36:19;3.72;;;2.20;;
11504;SDS011;5809;53.262;10.408;2023-06-26T13:38:46;5.43;;;2.08;;
11504;SDS011;5809;53.262;10.408;2023-06-26T13:41:15;6.32;;;2.45;;
11504;SDS011;5809;53.262;10.408;2023-06-26T13:43:44;5.45;;;2.25;;
11504;SDS011;5809;53.262;10.408;2023-06-26T13:46:12;4.47;;;2.20;;
11504;SDS011;5809;53.262;10.408;2023-06-26T13:48:39;7.63;;;2.28;;
11504;SDS011;5809;53.262;10.408;2023-06-26T13:51:06;4.43;;;2.22;;
11504;SDS011;5809;53.262;10.408;2023-06-26T13:53:33;5.32;;;2.00;;
11504;SDS011;5809;53.262;10.408;2023-06-26T13:56:00;6.00;;;2.60;;
11504;SDS011;5809;53.262;10.408;2023-06-26T13:58:26;8.90;;;2.47;;
11504;SDS011;5809;53.262;10.408;2023-06-26T14:00:55;5.90;;;2.53;;
11504;SDS011;5809;53.262;10.408;2023-06-26T14:03:23;4.82;;;2.22;;
11504;SDS011;5809;53.262;10.408;2023-06-26T14:05:50;5.50;;;2.50;;
11504;SDS011;5809;53.262;10.408;2023-06-26T14:08:17;4.00;;;2.08;;
11504;SDS011;5809;53.262;10.408;2023-06-26T14:10:44;4.57;;;2.30;;
11504;SDS011;5809;53.262;10.408;2023-06-26T14:13:10;5.90;;;2.60;;
11504;SDS011;5809;53.262;10.408;2023-06-26T14:15:40;9.20;;;2.38;;
11504;SDS011;5809;53.262;10.408;2023-06-26T14:18:07;6.60;;;2.38;;
11504;SDS011;5809;53.262;10.408;2023-06-26T14:20:36;5.18;;;2.35;;
11504;SDS011;5809;53.262;10.408;2023-06-26T14:23:03;4.25;;;2.20;;
11504;SDS011;5809;53.262;10.408;2023-06-26T14:25:30;4.82;;;1.88;;
11504;SDS011;5809;53.262;10.408;2023-06-26T14:27:57;6.57;;;2.33;;
11504;SDS011;5809;53.262;10.408;2023-06-26T14:30:24;5.03;;;2.30;;
11504;SDS011;5809;53.262;10.408;2023-06-26T14:32:51;4.55;;;2.30;;
11504;SDS011;5809;53.262;10.408;2023-06-26T14:35:18;5.32;;;1.90;;
11504;SDS011;5809;53.262;10.408;2023-06-26T14:37:47;4.90;;;1.83;;
11504;SDS011;5809;53.262;10.408;2023-06-26T14:40:14;5.63;;;2.40;;
11504;SDS011;5809;53.262;10.408;2023-06-26T14:42:41;4.57;;;2.13;;
11504;SDS011;5809;53.262;10.408;2023-06-26T14:45:10;3.30;;;1.92;;
11504;SDS011;5809;53.262;10.408;2023-06-26T14:47:37;7.20;;;2.55;;
11504;SDS011;5809;53.262;10.408;2023-06-26T14:50:05;6.35;;;2.80;;